CPU2 weather

Public forecast

Using degrees Celsius for public forecast. Weather courtesy of forecast.io.

Closest aviation weather report (METAR) to Kincardine (South Bruce Grey Health Centre Hospital) Heliport

Closest report is Wiarton Airport, 40.2 nm (74.4 km) NNE. Retrieved 2020/08/14 02:00 UTC (16 minutes ago):

CYVV 140200Z 05006KT 15SM FEW150 20/18 A3013 RMK AC1 SLP202 DENSITY ALT 1300FT

Closest aviation forecast (TAF) to Kincardine (South Bruce Grey Health Centre Hospital) Heliport

Forecast is more than 6 hours old.

Closest forecast is Wiarton Airport, 40.2 nm (74.4 km) NNE. Retrieved 2020/08/13 20:00 UTC (6 hours ago):

TAF CYVV 131938Z 1320/1323 08010KT P6SM BKN150 FM132200 07010KT P6SM SCT150 RMK NXT FCST WILL BE ISSUED AT 141045Z